createdAt,value
2018-12-15T00:00:45.719Z,98079.81
2018-12-15T00:03:13.211Z,98083.33
2018-12-15T00:05:40.713Z,98084.75
2018-12-15T00:08:08.199Z,98083.52
2018-12-15T00:10:35.726Z,98076.45
2018-12-15T00:13:03.205Z,98073.27
2018-12-15T00:15:30.691Z,98078.02
2018-12-15T00:17:58.174Z,98074.14
2018-12-15T00:20:25.642Z,98076.42
2018-12-15T00:22:53.145Z,98076.94
2018-12-15T00:25:20.632Z,98082.59
2018-12-15T00:27:48.131Z,98078.33
2018-12-15T00:30:15.639Z,98079.75
2018-12-15T00:32:43.161Z,98080.48
2018-12-15T00:35:10.684Z,98081.54
2018-12-15T00:37:38.190Z,98082.93
2018-12-15T00:40:05.678Z,98087.52
2018-12-15T00:42:33.269Z,98091.05
2018-12-15T00:45:00.759Z,98102.15
2018-12-15T00:47:28.238Z,98097.21
2018-12-15T00:49:55.730Z,98095.45
2018-12-15T00:52:23.238Z,98099.68
2018-12-15T00:54:50.712Z,98102.34
2018-12-15T00:57:18.191Z,98103.20
2018-12-15T00:59:45.693Z,98102.64
2018-12-15T01:02:13.206Z,98107.95
2018-12-15T01:04:40.714Z,98116.92
2018-12-15T01:07:08.207Z,98108.28
2018-12-15T01:09:35.686Z,98113.22
2018-12-15T01:12:03.179Z,98110.23
2018-12-15T01:14:30.678Z,98117.30
2018-12-15T01:16:58.169Z,98113.75
2018-12-15T01:19:25.683Z,98115.69
2018-12-15T01:21:53.181Z,98110.91
2018-12-15T01:24:20.689Z,98115.50
2018-12-15T01:26:48.183Z,98110.75
2018-12-15T01:29:15.675Z,98110.94
2018-12-15T01:31:43.184Z,98115.54
2018-12-15T01:34:10.688Z,98113.93
2018-12-15T01:36:38.243Z,98112.70
2018-12-15T01:39:06.502Z,98113.22
2018-12-15T01:41:33.998Z,98116.92
2018-12-15T01:44:01.498Z,98117.45
2018-12-15T01:46:29.026Z,98117.97
2018-12-15T01:48:56.522Z,98119.92
2018-12-15T01:51:24.023Z,98116.73
2018-12-15T01:53:51.531Z,98122.91
2018-12-15T01:56:19.023Z,98123.44
2018-12-15T01:58:46.542Z,98128.41
2018-12-15T02:01:14.067Z,98121.89
2018-12-15T02:03:41.545Z,98123.80
2018-12-15T02:06:09.021Z,98121.00
2018-12-15T02:08:36.494Z,98128.25
2018-12-15T02:11:03.991Z,98127.88
2018-12-15T02:13:31.481Z,98135.99
2018-12-15T02:15:59.003Z,98142.50
2018-12-15T02:18:26.486Z,98139.36
2018-12-15T02:20:53.971Z,98141.80
2018-12-15T02:23:21.471Z,98149.72
2018-12-15T02:25:48.966Z,98143.73
2018-12-15T02:28:16.441Z,98142.50
2018-12-15T02:30:44.219Z,98144.59
2018-12-15T02:33:11.720Z,98142.13
2018-12-15T02:35:39.201Z,98141.08
2018-12-15T02:38:06.688Z,98138.09
2018-12-15T02:40:34.313Z,98138.09
2018-12-15T02:43:01.799Z,98144.26
2018-12-15T02:45:29.283Z,98142.31
2018-12-15T02:47:56.789Z,98142.50
2018-12-15T02:50:24.285Z,98151.85
2018-12-15T02:52:51.774Z,98149.72
2018-12-15T02:55:19.266Z,98152.90
2018-12-15T02:57:46.780Z,98156.45
2018-12-15T03:00:14.283Z,98159.25
2018-12-15T03:02:41.809Z,98159.78
2018-12-15T03:05:09.303Z,98159.78
2018-12-15T03:07:36.818Z,98156.08
2018-12-15T03:10:05.718Z,98159.59
2018-12-15T03:12:33.208Z,98154.88
2018-12-15T03:15:00.723Z,98156.45
2018-12-15T03:17:28.202Z,98165.28
2018-12-15T03:19:58.662Z,98166.13
2018-12-15T03:22:26.154Z,98165.95
2018-12-15T03:24:53.631Z,98164.19
2018-12-15T03:27:21.114Z,98169.84
2018-12-15T03:29:48.589Z,98205.10
2018-12-15T03:32:16.104Z,98169.65
2018-12-15T03:34:43.599Z,98170.14
2018-12-15T03:37:11.077Z,98170.14
2018-12-15T03:39:38.569Z,98165.91
2018-12-15T03:42:06.055Z,98173.35
2018-12-15T03:44:33.535Z,98167.14
2018-12-15T03:47:01.024Z,98168.91
2018-12-15T03:49:28.503Z,98167.33
2018-12-15T03:51:56.013Z,98166.44
2018-12-15T03:54:23.527Z,98167.11
2018-12-15T03:56:51.066Z,98169.05
2018-12-15T03:59:19.057Z,98170.63
2018-12-15T04:01:46.542Z,98167.81
2018-12-15T04:04:14.036Z,98172.04
2018-12-15T04:06:41.526Z,98172.60
2018-12-15T04:09:09.003Z,98174.02
2018-12-15T04:11:36.518Z,98178.59
2018-12-15T04:14:04.783Z,98171.70
2018-12-15T04:16:32.282Z,98172.60
2018-12-15T04:18:59.773Z,98174.17
2018-12-15T04:21:27.249Z,98181.02
2018-12-15T04:23:54.739Z,98178.20
2018-12-15T04:26:22.247Z,98185.80
2018-12-15T04:28:49.821Z,98182.77
2018-12-15T04:31:17.313Z,98180.30
2018-12-15T04:33:44.810Z,98181.34
2018-12-15T04:36:14.862Z,98185.57
2018-12-15T04:38:42.430Z,98186.14
2018-12-15T04:41:09.911Z,98185.23
2018-12-15T04:43:37.395Z,98187.52
2018-12-15T04:46:05.964Z,98188.80
2018-12-15T04:48:33.453Z,98191.26
2018-12-15T04:51:00.962Z,98187.52
2018-12-15T04:53:28.576Z,98194.06
2018-12-15T04:55:56.151Z,98194.06
2018-12-15T04:58:23.639Z,98199.48
2018-12-15T05:00:51.148Z,98197.58
2018-12-15T05:03:18.681Z,98213.05
2018-12-15T05:05:46.170Z,98194.59
2018-12-15T05:08:13.673Z,98197.76
2018-12-15T05:10:41.165Z,98200.56
2018-12-15T05:13:08.649Z,98202.14
2018-12-15T05:15:36.137Z,98202.14
2018-12-15T05:18:03.650Z,98208.53
2018-12-15T05:20:31.162Z,98213.32
2018-12-15T05:22:58.665Z,98212.09
2018-12-15T05:25:26.192Z,98211.72
2018-12-15T05:27:53.707Z,98208.01
2018-12-15T05:30:21.202Z,98208.69
2018-12-15T05:32:48.686Z,98211.71
2018-12-15T05:35:16.184Z,98217.02
2018-12-15T05:37:43.661Z,98221.77
2018-12-15T05:40:11.162Z,98219.30
2018-12-15T05:42:38.686Z,98221.54
2018-12-15T05:45:06.175Z,98223.67
2018-12-15T05:47:33.700Z,98219.97
2018-12-15T05:50:01.194Z,98220.64
2018-12-15T05:52:28.679Z,98226.99
2018-12-15T05:54:56.170Z,98225.05
2018-12-15T05:57:23.655Z,98233.02
2018-12-15T05:59:51.186Z,98233.78
2018-12-15T06:02:19.303Z,98240.14
2018-12-15T06:04:46.803Z,98241.75
2018-12-15T06:07:14.296Z,98241.03
2018-12-15T06:09:41.912Z,98241.37
2018-12-15T06:12:09.466Z,98241.84
2018-12-15T06:14:36.989Z,98238.48
2018-12-15T06:17:04.494Z,98237.58
2018-12-15T06:19:31.971Z,98238.96
2018-12-15T06:21:59.437Z,98243.89
2018-12-15T06:24:26.927Z,98243.75
2018-12-15T06:26:54.430Z,98238.81
2018-12-15T06:29:21.927Z,98243.37
2018-12-15T06:31:49.410Z,98239.81
2018-12-15T06:34:16.915Z,98243.32
2018-12-15T06:36:44.403Z,98243.32
2018-12-15T06:39:11.901Z,98238.24
2018-12-15T06:41:39.378Z,98245.12
2018-12-15T06:44:06.872Z,98242.28
2018-12-15T06:46:34.411Z,98241.42
2018-12-15T06:49:01.910Z,98248.06
2018-12-15T06:51:29.568Z,98249.86
2018-12-15T06:53:57.290Z,98248.97
2018-12-15T06:56:26.783Z,98247.55
2018-12-15T06:58:54.386Z,98248.92
2018-12-15T07:01:22.035Z,98252.62
2018-12-15T07:03:49.596Z,98248.58
2018-12-15T07:06:17.085Z,98252.62
2018-12-15T07:08:44.565Z,98254.42
2018-12-15T07:11:12.073Z,98252.28
2018-12-15T07:13:39.551Z,98253.52
2018-12-15T07:16:07.096Z,98260.92
2018-12-15T07:18:34.610Z,98255.46
2018-12-15T07:21:02.135Z,98264.63
2018-12-15T07:23:29.665Z,98261.97
2018-12-15T07:25:57.204Z,98257.03
2018-12-15T07:28:24.698Z,98263.39
2018-12-15T07:30:53.339Z,98268.66
2018-12-15T07:33:22.867Z,98268.52
2018-12-15T07:35:50.363Z,98268.85
2018-12-15T07:38:18.086Z,98267.13
2018-12-15T07:40:45.779Z,98272.59
2018-12-15T07:43:14.279Z,98269.23
2018-12-15T07:45:43.768Z,98273.13
2018-12-15T07:48:11.281Z,98278.81
2018-12-15T07:50:38.786Z,98269.61
2018-12-15T07:53:06.368Z,98175.52
2018-12-15T07:55:36.109Z,98279.34
2018-12-15T07:58:03.649Z,98279.53
2018-12-15T08:00:31.198Z,98276.02
2018-12-15T08:02:59.646Z,98273.59
2018-12-15T08:05:27.132Z,98265.48
2018-12-15T08:07:54.619Z,98292.48
2018-12-15T08:10:23.350Z,98275.07
2018-12-15T08:12:56.694Z,98275.45
2018-12-15T08:15:24.768Z,98282.81
2018-12-15T08:17:52.249Z,98280.05
2018-12-15T08:20:19.791Z,98273.70
2018-12-15T08:22:47.286Z,98276.02
2018-12-15T08:25:15.787Z,98278.83
2018-12-15T08:27:43.321Z,98277.59
2018-12-15T08:30:10.914Z,98282.70
2018-12-15T08:32:38.439Z,98279.87
2018-12-15T08:35:05.938Z,98283.23
2018-12-15T08:37:33.433Z,98281.85
2018-12-15T08:40:03.067Z,98285.37
2018-12-15T08:42:30.541Z,98284.70
2018-12-15T08:44:58.013Z,98285.80
2018-12-15T08:47:26.449Z,98294.15
2018-12-15T08:49:53.931Z,98289.59
2018-12-15T08:52:21.416Z,98291.05
2018-12-15T08:54:48.903Z,98292.66
2018-12-15T08:57:18.372Z,98297.23
2018-12-15T08:59:45.849Z,98295.51
2018-12-15T09:02:13.350Z,98289.63
2018-12-15T09:04:40.886Z,98295.61
2018-12-15T09:07:08.362Z,98290.00
2018-12-15T09:09:35.846Z,98294.08
2018-12-15T09:12:03.318Z,98291.66
2018-12-15T09:14:30.803Z,98299.11
2018-12-15T09:16:58.345Z,98295.41
2018-12-15T09:19:26.625Z,98290.98
2018-12-15T09:21:54.174Z,98293.45
2018-12-15T09:24:21.823Z,98290.42
2018-12-15T09:26:49.301Z,98286.61
2018-12-15T09:29:16.800Z,98284.70
2018-12-15T09:31:44.286Z,98285.07
2018-12-15T09:34:11.751Z,98284.55
2018-12-15T09:36:39.236Z,98280.99
2018-12-15T09:39:07.497Z,98280.13
2018-12-15T09:41:34.983Z,98279.57
2018-12-15T09:44:02.474Z,98284.51
2018-12-15T09:46:29.949Z,98279.94
2018-12-15T09:48:57.430Z,98280.84
2018-12-15T09:51:24.899Z,98276.61
2018-12-15T09:53:52.389Z,98277.17
2018-12-15T09:56:19.881Z,98274.36
2018-12-15T09:58:51.216Z,98277.55
2018-12-15T10:01:18.862Z,98275.10
2018-12-15T10:03:46.495Z,98265.92
2018-12-15T10:06:13.971Z,98274.95
2018-12-15T10:08:42.379Z,98261.36
2018-12-15T10:11:09.860Z,98263.83
2018-12-15T10:13:37.343Z,98258.20
2018-12-15T10:16:04.837Z,98262.99
2018-12-15T10:18:32.318Z,98260.36
2018-12-15T10:20:59.807Z,98253.66
2018-12-15T10:23:27.305Z,98249.24
2018-12-15T10:25:54.780Z,98241.33
2018-12-15T10:28:22.254Z,98241.69
2018-12-15T10:33:56.536Z,98238.74
2018-12-15T10:36:25.982Z,98233.63
2018-12-15T10:38:53.459Z,98229.79
2018-12-15T10:41:20.938Z,98236.31
2018-12-15T10:43:48.417Z,98230.67
2018-12-15T10:46:15.941Z,98229.27
2018-12-15T10:48:43.422Z,98234.94
2018-12-15T10:51:10.894Z,98225.09
2018-12-15T10:53:38.366Z,98225.25
2018-12-15T10:56:05.839Z,98226.30
2018-12-15T10:58:33.323Z,98219.76
2018-12-15T11:01:02.777Z,98224.00
2018-12-15T11:03:30.258Z,98222.38
2018-12-15T11:05:57.734Z,98216.52
2018-12-15T11:08:25.219Z,98221.05
2018-12-15T11:10:52.698Z,98231.99
2018-12-15T11:13:20.207Z,98223.68
2018-12-15T11:15:47.694Z,98222.60
2018-12-15T11:18:15.170Z,98218.19
2018-12-15T11:20:42.642Z,98215.56
2018-12-15T11:23:10.123Z,98218.19
2018-12-15T11:25:37.598Z,98212.71
2018-12-15T11:28:05.081Z,98208.16
2018-12-15T11:30:32.578Z,98210.13
2018-12-15T11:33:00.059Z,98214.38
2018-12-15T11:35:27.546Z,98212.10
2018-12-15T11:37:55.044Z,98215.83
2018-12-15T11:40:22.514Z,98217.58
2018-12-15T11:42:50.000Z,98213.48
2018-12-15T11:45:17.484Z,98220.52
2018-12-15T11:47:44.953Z,98218.39
2018-12-15T11:50:19.403Z,98211.32
2018-12-15T11:52:46.914Z,98203.92
2018-12-15T11:55:14.385Z,98198.61
2018-12-15T11:57:41.872Z,98206.05
2018-12-15T12:00:09.349Z,98200.58
2018-12-15T12:02:36.821Z,98201.47
2018-12-15T12:05:05.575Z,98194.76
2018-12-15T12:07:33.051Z,98196.56
2018-12-15T12:10:00.549Z,98196.38
2018-12-15T12:12:28.013Z,98194.80
2018-12-15T12:14:55.482Z,98191.06
2018-12-15T12:17:22.965Z,98192.25
2018-12-15T12:19:50.493Z,98186.27
2018-12-15T12:22:18.158Z,98185.52
2018-12-15T12:24:45.641Z,98185.18
2018-12-15T12:27:13.124Z,98185.52
2018-12-15T12:29:40.630Z,98188.52
2018-12-15T12:32:08.106Z,98183.73
2018-12-15T12:34:35.570Z,98187.29
2018-12-15T12:37:03.055Z,98187.31
2018-12-15T12:39:30.530Z,98176.91
2018-12-15T12:41:58.035Z,98174.45
2018-12-15T12:44:25.519Z,98174.84
2018-12-15T12:46:52.993Z,98174.47
2018-12-15T12:49:20.467Z,98175.52
2018-12-15T12:51:47.942Z,98171.12
2018-12-15T12:54:15.414Z,98170.42
2018-12-15T12:56:42.915Z,98170.09
2018-12-15T12:59:10.391Z,98192.52
2018-12-15T13:01:37.878Z,98173.81
2018-12-15T13:04:05.494Z,98172.76
2018-12-15T13:06:32.985Z,98169.75
2018-12-15T13:09:00.484Z,98177.87
2018-12-15T13:11:27.949Z,98168.87
2018-12-15T13:13:55.467Z,98170.47
2018-12-15T13:16:22.950Z,98168.69
2018-12-15T13:18:50.427Z,98178.58
2018-12-15T13:21:17.893Z,98175.91
2018-12-15T13:23:45.545Z,98175.01
2018-12-15T13:26:13.035Z,98174.48
2018-12-15T13:28:40.511Z,98176.58
2018-12-15T13:31:08.018Z,98168.81
2018-12-15T13:33:36.522Z,98171.65
2018-12-15T13:36:08.019Z,98179.06
2018-12-15T13:38:35.514Z,98172.69
2018-12-15T13:41:02.991Z,98171.09
2018-12-15T13:43:30.453Z,98178.11
2018-12-15T13:45:57.947Z,98172.59
2018-12-15T13:48:25.462Z,98184.25
2018-12-15T13:50:52.946Z,98176.59
2018-12-15T13:53:20.430Z,98178.39
2018-12-15T13:55:47.897Z,98183.46
2018-12-15T13:58:15.380Z,98183.59
2018-12-15T14:00:42.867Z,98187.11
2018-12-15T14:03:10.341Z,98181.67
2018-12-15T14:05:37.842Z,98190.17
2018-12-15T14:08:05.365Z,98187.75
2018-12-15T14:10:32.918Z,98186.72
2018-12-15T14:13:00.412Z,98187.77
2018-12-15T14:15:27.907Z,98185.98
2018-12-15T14:17:55.403Z,98185.44
2018-12-15T14:20:22.902Z,98185.75
2018-12-15T14:22:50.431Z,98182.91
2018-12-15T14:25:17.923Z,98185.69
2018-12-15T14:27:45.399Z,98182.70
2018-12-15T14:30:12.878Z,98182.36
2018-12-15T14:32:40.351Z,98189.41
2018-12-15T14:35:07.822Z,98185.82
2018-12-15T14:37:35.298Z,98186.28
2018-12-15T14:40:02.869Z,98184.67
2018-12-15T14:42:30.364Z,98182.39
2018-12-15T14:44:57.861Z,98187.11
2018-12-15T14:47:25.346Z,98184.23
2018-12-15T14:49:52.832Z,98186.22
2018-12-15T14:52:20.302Z,98188.16
2018-12-15T14:54:47.858Z,98180.75
2018-12-15T14:57:17.346Z,98174.02
2018-12-15T14:59:44.825Z,98180.69
2018-12-15T15:02:12.321Z,98184.02
2018-12-15T15:04:39.802Z,98177.80
2018-12-15T15:07:07.269Z,98181.84
2018-12-15T15:09:34.790Z,98175.86
2018-12-15T15:12:02.270Z,98179.00
2018-12-15T15:14:29.746Z,98177.54
2018-12-15T15:16:57.230Z,98180.01
2018-12-15T15:19:24.706Z,98186.89
2018-12-15T15:21:52.276Z,98182.84
2018-12-15T15:24:19.762Z,98181.95
2018-12-15T15:26:47.298Z,98181.23
2018-12-15T15:29:14.784Z,98174.88
2018-12-15T15:31:42.255Z,98171.18
2018-12-15T15:34:09.728Z,98178.21
2018-12-15T15:36:37.211Z,98178.77
2018-12-15T15:39:06.261Z,98170.77
2018-12-15T15:41:34.830Z,98170.80
2018-12-15T15:44:02.313Z,98174.99
2018-12-15T15:46:29.793Z,98174.66
2018-12-15T15:48:57.299Z,98172.19
2018-12-15T15:51:24.774Z,97822.42
2018-12-15T15:53:52.265Z,98166.20
2018-12-15T15:56:19.798Z,98170.63
2018-12-15T15:58:47.275Z,98170.13
2018-12-15T16:01:14.758Z,98174.55
2018-12-15T16:03:42.257Z,98177.05
2018-12-15T16:06:09.742Z,98174.66
2018-12-15T16:08:37.220Z,98163.41
2018-12-15T16:11:04.701Z,98168.71
2018-12-15T16:13:32.261Z,98163.25
2018-12-15T16:15:59.744Z,98159.77
2018-12-15T16:18:27.227Z,98157.33
2018-12-15T16:20:54.731Z,98161.34
2018-12-15T16:23:22.206Z,98163.66
2018-12-15T16:25:49.691Z,98167.14
2018-12-15T16:28:17.174Z,98165.41
2018-12-15T16:30:44.645Z,98166.13
2018-12-15T16:33:12.118Z,98161.34
2018-12-15T16:35:39.619Z,98162.77
2018-12-15T16:38:07.126Z,98158.69
2018-12-15T16:40:34.606Z,98152.55
2018-12-15T16:43:02.089Z,98153.03
2018-12-15T16:45:29.574Z,97722.92
2018-12-15T16:47:57.063Z,98144.23
2018-12-15T16:50:24.573Z,98148.50
2018-12-15T16:52:52.252Z,98144.61
2018-12-15T16:55:19.922Z,98143.38
2018-12-15T16:57:47.391Z,98146.55
2018-12-15T17:00:14.871Z,98140.47
2018-12-15T17:02:42.360Z,98142.02
2018-12-15T17:05:09.837Z,98140.89
2018-12-15T17:07:37.310Z,98137.38
2018-12-15T17:10:06.187Z,98133.05
2018-12-15T17:12:33.703Z,98131.02
2018-12-15T17:15:01.189Z,98125.94
2018-12-15T17:17:28.664Z,98123.69
2018-12-15T17:19:56.142Z,98126.86
2018-12-15T17:22:23.630Z,98124.24
2018-12-15T17:24:51.192Z,98123.12
2018-12-15T17:27:29.529Z,98120.89
2018-12-15T17:29:57.034Z,98120.41
2018-12-15T17:32:24.519Z,98113.23
2018-12-15T17:34:52.026Z,98119.06
2018-12-15T17:37:19.520Z,98105.86
2018-12-15T17:39:47.002Z,98113.60
2018-12-15T17:42:14.484Z,98109.04
2018-12-15T17:44:41.981Z,98106.88
2018-12-15T17:47:09.464Z,98100.48
2018-12-15T17:49:36.937Z,98106.89
2018-12-15T17:52:04.423Z,98105.95
2018-12-15T17:54:31.905Z,98098.94
2018-12-15T17:56:59.393Z,98095.84
2018-12-15T17:59:26.866Z,98105.08
2018-12-15T18:01:54.337Z,98100.15
2018-12-15T18:04:21.823Z,98099.84
2018-12-15T18:06:49.317Z,98095.92
2018-12-15T18:09:16.966Z,98090.95
2018-12-15T18:11:44.442Z,98091.36
2018-12-15T18:14:11.914Z,98089.19
2018-12-15T18:16:39.386Z,98080.37
2018-12-15T18:19:06.853Z,98077.38
2018-12-15T18:21:34.840Z,98074.24
2018-12-15T18:24:02.422Z,98076.15
2018-12-15T18:26:29.934Z,98076.16
2018-12-15T18:28:57.409Z,98070.55
2018-12-15T18:31:24.878Z,98073.57
2018-12-15T18:33:52.354Z,98076.34
2018-12-15T18:36:19.844Z,98064.37
2018-12-15T18:38:47.353Z,98061.20
2018-12-15T18:41:14.843Z,98051.94
2018-12-15T18:43:42.331Z,98046.59
2018-12-15T18:46:09.813Z,98039.86
2018-12-15T18:48:37.328Z,98043.19
2018-12-15T18:51:04.834Z,98040.23
2018-12-15T18:53:32.306Z,98039.91
2018-12-15T18:56:00.733Z,98043.48
2018-12-15T18:58:28.263Z,98043.52
2018-12-15T19:00:55.763Z,98043.03
2018-12-15T19:03:23.316Z,98042.36
2018-12-15T19:05:50.809Z,98044.83
2018-12-15T19:08:18.323Z,98040.11
2018-12-15T19:10:45.980Z,98039.59
2018-12-15T19:13:13.615Z,98036.94
2018-12-15T19:15:41.112Z,98039.06
2018-12-15T19:18:08.625Z,98039.59
2018-12-15T19:20:36.126Z,98033.82
2018-12-15T19:23:03.623Z,98035.23
2018-12-15T19:25:31.156Z,98025.92
2018-12-15T19:28:02.739Z,98019.41
2018-12-15T19:30:30.216Z,98016.60
2018-12-15T19:32:57.718Z,98010.91
2018-12-15T19:35:25.234Z,98009.64
2018-12-15T19:37:52.744Z,98013.56
2018-12-15T19:40:20.214Z,98009.86
2018-12-15T19:42:47.802Z,98001.95
2018-12-15T19:45:15.337Z,97988.20
2018-12-15T19:47:43.790Z,97989.80
2018-12-15T19:50:11.326Z,97984.55
2018-12-15T19:52:38.811Z,97985.59
2018-12-15T19:55:06.812Z,97974.47
2018-12-15T19:57:34.342Z,97977.47
2018-12-15T20:00:01.854Z,97974.28
2018-12-15T20:02:30.290Z,97967.96
2018-12-15T20:04:57.787Z,97964.20
2018-12-15T20:07:25.276Z,97963.48
2018-12-15T20:09:52.795Z,97954.11
2018-12-15T20:12:20.299Z,97950.09
2018-12-15T20:14:47.794Z,97944.81
2018-12-15T20:17:15.270Z,97942.01
2018-12-15T20:19:42.802Z,97935.10
2018-12-15T20:22:10.305Z,97930.01
2018-12-15T20:24:37.781Z,97923.13
2018-12-15T20:27:05.270Z,97924.32
2018-12-15T20:29:32.746Z,97915.19
2018-12-15T20:32:00.244Z,97915.55
2018-12-15T20:34:27.709Z,97915.00
2018-12-15T20:36:55.750Z,97908.65
2018-12-15T20:39:23.282Z,97907.58
2018-12-15T20:41:50.766Z,97906.34
2018-12-15T20:44:18.283Z,97903.55
2018-12-15T20:46:45.808Z,97901.00
2018-12-15T20:49:13.311Z,97894.16
2018-12-15T20:51:42.988Z,97886.41
2018-12-15T20:54:12.375Z,97878.33
2018-12-15T20:56:39.894Z,97881.83
2018-12-15T20:59:07.385Z,97875.64
2018-12-15T21:01:34.990Z,97872.58
2018-12-15T21:04:02.473Z,97863.34
2018-12-15T21:06:29.967Z,97858.36
2018-12-15T21:08:57.448Z,97856.92
2018-12-15T21:11:25.049Z,97847.38
2018-12-15T21:13:52.577Z,97853.13
2018-12-15T21:16:20.064Z,97838.84
2018-12-15T21:18:47.582Z,97845.33
2018-12-15T21:21:15.080Z,97839.45
2018-12-15T21:23:42.584Z,97853.33
2018-12-15T21:26:11.051Z,97833.32
2018-12-15T21:28:38.547Z,97834.59
2018-12-15T21:31:06.034Z,97834.06
2018-12-15T21:33:33.529Z,97830.73
2018-12-15T21:36:01.087Z,97832.98
2018-12-15T21:38:28.581Z,97834.85
2018-12-15T21:40:56.095Z,97826.23
2018-12-15T21:43:23.608Z,97827.47
2018-12-15T21:45:51.627Z,97822.91
2018-12-15T21:48:19.107Z,97814.14
2018-12-15T21:50:46.691Z,97810.62
2018-12-15T21:53:14.198Z,97814.70
2018-12-15T21:55:41.680Z,97812.42
2018-12-15T21:58:09.263Z,97812.45
2018-12-15T22:00:36.774Z,97808.75
2018-12-15T22:03:04.306Z,97813.52
2018-12-15T22:05:31.818Z,97813.34
2018-12-15T22:07:59.350Z,97808.20
2018-12-15T22:10:26.813Z,97812.57
2018-12-15T22:12:54.295Z,97808.69
2018-12-15T22:15:21.795Z,97807.42
2018-12-15T22:17:49.279Z,97802.84
2018-12-15T22:20:16.950Z,97796.65
2018-12-15T22:22:44.442Z,97795.57
2018-12-15T22:25:11.924Z,97792.03
2018-12-15T22:27:39.423Z,97789.91
2018-12-15T22:30:07.586Z,97784.23
2018-12-15T22:32:35.130Z,97785.09
2018-12-15T22:35:02.739Z,97777.67
2018-12-15T22:37:30.231Z,97771.86
2018-12-15T22:39:57.705Z,97770.59
2018-12-15T22:42:25.194Z,97763.84
2018-12-15T22:44:52.677Z,97760.63
2018-12-15T22:47:20.154Z,97753.44
2018-12-15T22:49:47.616Z,97753.92
2018-12-15T22:52:15.122Z,97745.13
2018-12-15T22:54:42.605Z,97742.66
2018-12-15T22:57:10.085Z,97742.95
2018-12-15T22:59:37.569Z,97736.95
2018-12-15T23:02:05.074Z,97738.84
2018-12-15T23:04:32.563Z,97730.94
2018-12-15T23:07:00.075Z,97718.65
2018-12-15T23:09:27.553Z,97728.48
2018-12-15T23:11:55.032Z,97725.42
2018-12-15T23:14:22.507Z,97719.71
2018-12-15T23:16:50.046Z,97717.64
2018-12-15T23:19:17.550Z,97720.99
2018-12-15T23:21:45.034Z,97713.14
2018-12-15T23:24:12.538Z,97713.89
2018-12-15T23:26:40.032Z,97705.11
2018-12-15T23:29:07.519Z,97708.31
2018-12-15T23:31:35.006Z,97708.50
2018-12-15T23:34:02.469Z,97698.10
2018-12-15T23:36:29.967Z,97697.06
2018-12-15T23:38:57.476Z,97696.20
2018-12-15T23:41:24.966Z,97688.64
2018-12-15T23:43:52.452Z,97682.45
2018-12-15T23:46:19.955Z,97679.39
2018-12-15T23:48:47.434Z,97677.79
2018-12-15T23:51:14.933Z,97681.47
2018-12-15T23:53:42.411Z,97675.70
2018-12-15T23:56:09.931Z,97666.39
2018-12-15T23:58:37.397Z,97662.85
